Goodland, KS

5:52 PM MDT on August 31, 2016 (GMT -0600)
Renner-Goodland Municipal | | Change Station
Active Advisory: Special Statement

Elev 3655 ft 39.37 °N, 101.69 °W | Updated 59 minutes ago

Partly Cloudy
Partly Cloudy
69 °F
Feels Like 69 °F
N
12
Wind Variable Wind from ESE

Today
High -- | Low -- °F
--% Chance of Precip.
Yesterday
High -- | Low -- °F
Precip. -- in
Pressure 30.12 in
Visibility 10.0 miles
Clouds Few 1400 ft
Few 3300 ft
Dew Point 64 °F
Humidity 84%
Rainfall 0.52 in
Snow Depth Not available.
6:14 AM 7:18 PM
Waning Crescent, 0% visible
METAR KGLD 312253Z AUTO 12010KT 10SM FEW014 FEW033 21/18 A3021 RMK AO2 SLP197 T02060178
Pressure 30.12 in
Visibility 10.0 miles
Clouds Few 1400 ft
Few 3300 ft
Dew Point 64 °F
Humidity 84%
Rainfall 0.52 in
Snow Depth Not available.
6:14 AM 7:18 PM
Waning Crescent, 0% visible
METAR KGLD 312253Z AUTO 12010KT 10SM FEW014 FEW033 21/18 A3021 RMK AO2 SLP197 T02060178

10-Day Weather Forecast

Almanac

Astronomy

Aug. 31, 2016 Rise Set
Actual Time
Civil Twilight
Nautical Twilight
Astronomical Twilight
Moon
Length of Visible Light
Length of Day
Tomorrow will be .
, % of the Moon is Illuminated

Today's Extremes

State Highs State Lows

Community

WunderPhotos

Upload Photos

1,936,215 photos uploaded!

WunderBlog® & News

Nearby

Air Quality

  Air Quality AQ Index Pollutant
Not available.

Snow Depth

Station Depth Elevation

Earthquake Activity

City Distance Mag. Time & Date
Minimum magnitude displayed is 2.5.

Coastal Water Temperatures

Place Temperature

Stations

Nearby Weather Stations

Station Location Temp. Windchill Dew Point Humidity Wind Precip. Elev Updated Type
                   

Watches & Warnings

Special Statement
Issued: 7:47 AM CDT Aug. 31, 2016 – National Weather Service

Patchy dense fog has developed this morning over parts of the
area and will continue to impact some locations through 9 am
MDT/10 am CDT. Visibilities as low as one quarter mile have been
reported including Oakley Kansas at Interstate 70. Motorists
should be prepared for sudden drops in visibilities over short
distances this morning.